Detall de PIREP

Printer-friendly versionPDF version

[2012/09/09 09:07:00]
Flight IATA:CT3223
Pilot Number:042
Company ICAO:CAT
Aircraft Type:MD11/E
PAX:0
Aircraft Registration:CARGO
Departing Airport: LEPA
Destination Airport: LPPT
Alternate Airport:LEMG
Online: VATSIM
Route:EPAMA UN733 CJN UN975 ELVAR DCT ESP
Flight Level:F370
No Slew and time accel
No pause
Crash detect
Detect pilot in Cockpit between each 30 and 45 minutes
09:07 Zero fuel Weight: 461299 Lbs, Fuel Weight: 17411 Lbs
09:07 VATSIM:LEPA 090830Z VRB01KT 8000 FEW018 26/20 Q1018 BECMG 21011KT
09:07 VATSIM:LPPT 090830Z 09003KT 350V140 9999 FEW012 21/17 Q1019
09:07 VOICE CATALONIAN/CARGO FLIGHT
09:16 Parking Brakes off
09:23 Take-off
09:23 Take off Weight: 477153 Lbs
09:23 Wind: 233º @ 003 Knots Heading: 238º
09:23 POS N39º 33´ 14´´ E002º 43´ 31´´
09:23 Gear Up: 186 Knots
09:23 Flaps:5 at 186 Knots
09:24 Flaps:4 at 193 Knots
09:24 Flaps:3 at 191 Knots
09:24 Flaps:2 at 190 Knots
09:24 Flaps:1 at 190 Knots
09:25 Flaps:0 at 222 Knots
09:38 Wind:213º@025 Knots Heading: 263º Ground Speed: 454 Knots Altitude 26043 ft
09:53 Wind:208º@006 Knots Heading: 298º Ground Speed: 490 Knots Altitude 33005 ft
10:08 Wind:096º@013 Knots Heading: 252º Ground Speed: 507 Knots Altitude 33198 ft
10:23 Wind:240º@024 Knots Heading: 242º Ground Speed: 449 Knots Altitude 31601 ft
10:36 Flaps:1 at 253 Knots
10:36 Flaps:2 at 241 Knots
10:36 Flaps:3 at 236 Knots
10:36 Flaps:2 at 234 Knots
10:36 Flaps:3 at 233 Knots
10:36 Flaps:2 at 232 Knots
10:36 Flaps:1 at 231 Knots
10:37 Flaps:2 at 228 Knots
10:37 Flaps:3 at 229 Knots
10:38 Wind:275º@005 Knots Heading: 243º Ground Speed: 249 Knots Altitude 9475 ft
10:53 Wind:290º@000 Knots Heading: 352º Ground Speed: 213 Knots Altitude 3868 ft
10:53 Flaps:4 at 199 Knots
10:53 Flaps:3 at 200 Knots
10:53 Flaps:4 at 199 Knots
10:53 Flaps:5 at 199 Knots
10:53 Flaps:6 at 199 Knots
10:54 Gear Down: 191 Knots
10:54 Flaps:7 at 191 Knots
10:54 Flaps:6 at 191 Knots
10:54 Flaps:5 at 191 Knots
10:54 Flaps:6 at 189 Knots
10:54 Flaps:7 at 191 Knots
10:54 Flaps:6 at 190 Knots
10:54 Flaps:7 at 188 Knots
10:57 TouchDown:Rate -159 ft/min Speed: 176 Knots
10:57 VATSIM:LPPT 091030Z 13005KT 080V220 9999 FEW020 SCT025 24/18 Q1019
10:57 Land
10:57 Wind:146º@003 Knots
10:57 Heading: 022º
10:57 Flight Duration: 01:34
10:57 Landing Weight: 597857 Lbs
10:57 POS N38º 46´ 59´´ W009º 08´ 05´´
11:04 Parking brakes on
11:04 Block to Block Duration: 01:48
11:04 Final Fuel: 135366 Lbls
11:04 Spent Fuel: 878589404 Lbls
11:04 Flight Length: 609 NM
11:04 TOD Land Length: 609 NM

Exportar CSV

Powered by Drupal - Modified by Danger4k